Maugansville, MD (21767)

4:01 PM EST on February 14, 2016 (GMT -0500)
APRSWXNET | | Change Station
CLOSE
Current Station
Personal Weather Station
Location: Maugansville, MD
Elevation: 564 ft
Nearby Weather Stations
Active Advisory: Winter Storm Warning

Elev 564 ft 39.69 °N, 77.76 °W | Updated 23 minutes ago

Clear
Clear
22 °F
Feels Like 22 °F
N
0
Wind Variable Wind from SW
Gusts 2.0 mph

Today
High -- | Low -- °F
--% Chance of Precip.
Yesterday
High -- | Low -- °F
Precip. -- in
Pressure 30.51 in
Visibility 10.0 miles
Clouds Clear
Windchill 22 °F
Dew Point 1 °F
Humidity 40%
Rainfall in
Snow Depth Not available.
7:05 AM 5:45 PM
Waxing Crescent, 45% visible
METAR KHGR 142053Z 11005KT 10SM CLR M07/M18 A3044 RMK AO2 SLP332 T10721178 55015
Pressure 30.51 in
Visibility 10.0 miles
Clouds Clear
Windchill 22 °F
Dew Point 1 °F
Humidity 40%
Rainfall in
Snow Depth Not available.
7:05 AM 5:45 PM
Waxing Crescent, 45% visible
METAR KHGR 142053Z 11005KT 10SM CLR M07/M18 A3044 RMK AO2 SLP332 T10721178 55015

10-Day Weather Forecast

Almanac

Astronomy

Feb. 14, 2016 Rise Set
Actual Time
Civil Twilight
Nautical Twilight
Astronomical Twilight
Moon
Length of Visible Light
Length of Day
Tomorrow will be .
, % of the Moon is Illuminated

Today's Extremes

State Highs State Lows

Community

WunderPhotos

Upload Photos

1,892,885 photos uploaded!

WunderBlog® & News

Nearby

Air Quality

  Air Quality AQ Index Pollutant
Not available.

Snow Depth

Station Depth Elevation

Earthquake Activity

City Distance Mag. Time & Date
Minimum magnitude displayed is 2.5.

Coastal Water Temperatures

Place Temperature

Stations

Nearby Weather Stations

Station Location Temp. Windchill Dew Point Humidity Wind Precip. Elev Updated Type
                   

Watches & Warnings

Winter Storm Warning
Issued: 2:13 PM EST Feb. 14, 2016 – National Weather Service

... Winter Storm Warning remains in effect from 1 am Monday to
10 am EST Tuesday...

* precipitation type... snow... sleet and freezing rain.

* Accumulation... 2 to 4 inches of snow and sleet. Around a quarter
inch of ice from freezing rain.

* Timing... snow will develop between 1 and 3 am Monday morning.
Snow will continue through Monday before changing to sleet and
freezing rain Monday night. Precipitation will change to rain
Tuesday morning.

* Winds... southeast around 5 to 10 mph.

* Temperatures... in the teens tonight... rising into the upper 20s
to lower 30s Monday into Monday night. Temperatures will rise
into the upper 30s and lower 40s Tuesday.

* Impacts... snow and ice will cause slippery roads and travel
will be difficult.

Precautionary/preparedness actions...

A Winter Storm Warning means significant amounts of snow...
sleet... and ice are expected or occurring. Strong winds are also
possible. This will make travel very hazardous or impossible.